sensor_id;sensor_type;location;lat;lon;timestamp;P1;durP1;ratioP1;P2;durP2;ratioP2
21621;SDS011;10973;46.706;12.340;2023-11-21T00:01:30;4.13;;;2.80;;
21621;SDS011;10973;46.706;12.340;2023-11-21T00:03:58;2.40;;;2.20;;
21621;SDS011;10973;46.706;12.340;2023-11-21T00:06:25;2.17;;;2.07;;
21621;SDS011;10973;46.706;12.340;2023-11-21T00:08:53;3.30;;;2.20;;
21621;SDS011;10973;46.706;12.340;2023-11-21T00:11:20;2.90;;;2.27;;
21621;SDS011;10973;46.706;12.340;2023-11-21T00:13:47;2.37;;;2.17;;
21621;SDS011;10973;46.706;12.340;2023-11-21T00:16:17;2.23;;;2.13;;
21621;SDS011;10973;46.706;12.340;2023-11-21T00:18:44;2.00;;;1.80;;
21621;SDS011;10973;46.706;12.340;2023-11-21T00:21:12;2.33;;;2.23;;
21621;SDS011;10973;46.706;12.340;2023-11-21T00:23:39;2.40;;;2.20;;
21621;SDS011;10973;46.706;12.340;2023-11-21T00:26:06;2.10;;;1.90;;
21621;SDS011;10973;46.706;12.340;2023-11-21T00:28:34;2.93;;;2.30;;
21621;SDS011;10973;46.706;12.340;2023-11-21T00:31:01;2.67;;;2.27;;
21621;SDS011;10973;46.706;12.340;2023-11-21T00:33:29;2.00;;;1.90;;
21621;SDS011;10973;46.706;12.340;2023-11-21T00:35:57;2.50;;;2.30;;
21621;SDS011;10973;46.706;12.340;2023-11-21T00:38:24;2.10;;;1.90;;
21621;SDS011;10973;46.706;12.340;2023-11-21T00:40:52;2.60;;;2.40;;
21621;SDS011;10973;46.706;12.340;2023-11-21T00:43:20;3.57;;;2.30;;
21621;SDS011;10973;46.706;12.340;2023-11-21T00:45:48;2.60;;;2.40;;
21621;SDS011;10973;46.706;12.340;2023-11-21T00:48:15;2.50;;;2.30;;
21621;SDS011;10973;46.706;12.340;2023-11-21T00:50:43;3.00;;;2.53;;
21621;SDS011;10973;46.706;12.340;2023-11-21T00:53:11;2.73;;;2.50;;
21621;SDS011;10973;46.706;12.340;2023-11-21T00:55:38;2.60;;;2.40;;
21621;SDS011;10973;46.706;12.340;2023-11-21T00:58:06;4.27;;;3.00;;
21621;SDS011;10973;46.706;12.340;2023-11-21T01:00:33;2.10;;;2.00;;
21621;SDS011;10973;46.706;12.340;2023-11-21T01:03:01;2.30;;;2.10;;
21621;SDS011;10973;46.706;12.340;2023-11-21T01:05:28;2.27;;;2.07;;
21621;SDS011;10973;46.706;12.340;2023-11-21T01:07:55;3.33;;;2.13;;
21621;SDS011;10973;46.706;12.340;2023-11-21T01:10:23;2.43;;;2.33;;
21621;SDS011;10973;46.706;12.340;2023-11-21T01:12:50;5.87;;;2.37;;
21621;SDS011;10973;46.706;12.340;2023-11-21T01:15:18;2.73;;;2.53;;
21621;SDS011;10973;46.706;12.340;2023-11-21T01:17:45;2.70;;;2.17;;
21621;SDS011;10973;46.706;12.340;2023-11-21T01:20:13;2.97;;;2.17;;
21621;SDS011;10973;46.706;12.340;2023-11-21T01:22:41;2.47;;;2.23;;
21621;SDS011;10973;46.706;12.340;2023-11-21T01:25:09;3.10;;;2.07;;
21621;SDS011;10973;46.706;12.340;2023-11-21T01:27:36;3.00;;;2.70;;
21621;SDS011;10973;46.706;12.340;2023-11-21T01:30:04;2.77;;;2.57;;
21621;SDS011;10973;46.706;12.340;2023-11-21T01:32:32;2.77;;;2.57;;
21621;SDS011;10973;46.706;12.340;2023-11-21T01:35:00;3.03;;;2.30;;
21621;SDS011;10973;46.706;12.340;2023-11-21T01:37:28;2.60;;;2.40;;
21621;SDS011;10973;46.706;12.340;2023-11-21T01:39:55;2.50;;;2.30;;
21621;SDS011;10973;46.706;12.340;2023-11-21T01:42:22;3.37;;;2.60;;
21621;SDS011;10973;46.706;12.340;2023-11-21T01:44:50;3.63;;;2.83;;
21621;SDS011;10973;46.706;12.340;2023-11-21T01:47:17;2.90;;;2.67;;
21621;SDS011;10973;46.706;12.340;2023-11-21T01:49:45;3.00;;;2.23;;
21621;SDS011;10973;46.706;12.340;2023-11-21T01:52:14;3.87;;;2.90;;
21621;SDS011;10973;46.706;12.340;2023-11-21T01:54:42;3.90;;;2.87;;
21621;SDS011;10973;46.706;12.340;2023-11-21T01:57:09;2.93;;;2.73;;
21621;SDS011;10973;46.706;12.340;2023-11-21T01:59:37;2.90;;;2.60;;
21621;SDS011;10973;46.706;12.340;2023-11-21T02:02:07;3.97;;;2.20;;
21621;SDS011;10973;46.706;12.340;2023-11-21T02:04:35;2.80;;;2.47;;
21621;SDS011;10973;46.706;12.340;2023-11-21T02:07:04;2.10;;;2.00;;
21621;SDS011;10973;46.706;12.340;2023-11-21T02:09:32;2.50;;;2.33;;
21621;SDS011;10973;46.706;12.340;2023-11-21T02:12:00;2.30;;;2.10;;
21621;SDS011;10973;46.706;12.340;2023-11-21T02:14:28;3.43;;;2.57;;
21621;SDS011;10973;46.706;12.340;2023-11-21T02:16:57;3.43;;;2.50;;
21621;SDS011;10973;46.706;12.340;2023-11-21T02:19:25;3.87;;;2.43;;
21621;SDS011;10973;46.706;12.340;2023-11-21T02:21:52;3.90;;;2.27;;
21621;SDS011;10973;46.706;12.340;2023-11-21T02:24:23;3.00;;;2.70;;
21621;SDS011;10973;46.706;12.340;2023-11-21T02:26:51;3.17;;;2.53;;
21621;SDS011;10973;46.706;12.340;2023-11-21T02:29:19;2.40;;;2.20;;
21621;SDS011;10973;46.706;12.340;2023-11-21T02:31:47;4.03;;;2.23;;
21621;SDS011;10973;46.706;12.340;2023-11-21T02:34:18;3.87;;;2.10;;
21621;SDS011;10973;46.706;12.340;2023-11-21T02:36:46;2.70;;;2.10;;
21621;SDS011;10973;46.706;12.340;2023-11-21T02:39:14;4.23;;;2.20;;
21621;SDS011;10973;46.706;12.340;2023-11-21T02:41:42;2.37;;;2.23;;
21621;SDS011;10973;46.706;12.340;2023-11-21T02:44:11;2.67;;;2.47;;
21621;SDS011;10973;46.706;12.340;2023-11-21T02:46:41;2.40;;;2.20;;
21621;SDS011;10973;46.706;12.340;2023-11-21T02:49:21;2.87;;;2.30;;
21621;SDS011;10973;46.706;12.340;2023-11-21T02:51:53;3.20;;;2.90;;
21621;SDS011;10973;46.706;12.340;2023-11-21T02:54:21;2.73;;;2.53;;
21621;SDS011;10973;46.706;12.340;2023-11-21T02:56:48;2.40;;;2.20;;
21621;SDS011;10973;46.706;12.340;2023-11-21T02:59:16;3.43;;;2.57;;
21621;SDS011;10973;46.706;12.340;2023-11-21T03:01:44;2.70;;;2.50;;
21621;SDS011;10973;46.706;12.340;2023-11-21T03:04:12;3.20;;;2.10;;
21621;SDS011;10973;46.706;12.340;2023-11-21T03:06:40;2.53;;;2.33;;
21621;SDS011;10973;46.706;12.340;2023-11-21T03:09:07;2.13;;;1.87;;
21621;SDS011;10973;46.706;12.340;2023-11-21T03:11:35;2.30;;;2.10;;
21621;SDS011;10973;46.706;12.340;2023-11-21T03:14:02;2.40;;;2.20;;
21621;SDS011;10973;46.706;12.340;2023-11-21T03:16:31;2.67;;;2.20;;
21621;SDS011;10973;46.706;12.340;2023-11-21T03:18:59;2.43;;;2.23;;
21621;SDS011;10973;46.706;12.340;2023-11-21T03:21:26;2.40;;;2.20;;
21621;SDS011;10973;46.706;12.340;2023-11-21T03:23:54;2.40;;;2.20;;
21621;SDS011;10973;46.706;12.340;2023-11-21T03:26:21;2.57;;;2.37;;
21621;SDS011;10973;46.706;12.340;2023-11-21T03:28:49;2.50;;;2.30;;
21621;SDS011;10973;46.706;12.340;2023-11-21T03:31:16;2.27;;;2.13;;
21621;SDS011;10973;46.706;12.340;2023-11-21T03:33:43;2.27;;;2.07;;
21621;SDS011;10973;46.706;12.340;2023-11-21T03:36:12;2.50;;;2.30;;
21621;SDS011;10973;46.706;12.340;2023-11-21T03:38:40;2.83;;;1.90;;
21621;SDS011;10973;46.706;12.340;2023-11-21T03:41:08;2.27;;;2.07;;
21621;SDS011;10973;46.706;12.340;2023-11-21T03:43:38;2.07;;;1.87;;
21621;SDS011;10973;46.706;12.340;2023-11-21T03:46:06;2.30;;;2.20;;
21621;SDS011;10973;46.706;12.340;2023-11-21T03:48:33;2.33;;;2.17;;
21621;SDS011;10973;46.706;12.340;2023-11-21T03:51:00;3.20;;;1.90;;
21621;SDS011;10973;46.706;12.340;2023-11-21T03:53:28;2.20;;;2.00;;
21621;SDS011;10973;46.706;12.340;2023-11-21T03:55:57;2.63;;;2.40;;
21621;SDS011;10973;46.706;12.340;2023-11-21T03:58:24;2.13;;;2.03;;
21621;SDS011;10973;46.706;12.340;2023-11-21T04:00:52;2.20;;;2.10;;
21621;SDS011;10973;46.706;12.340;2023-11-21T04:03:19;2.07;;;1.97;;
21621;SDS011;10973;46.706;12.340;2023-11-21T04:05:47;2.30;;;2.20;;
21621;SDS011;10973;46.706;12.340;2023-11-21T04:08:14;2.30;;;2.07;;
21621;SDS011;10973;46.706;12.340;2023-11-21T04:10:42;2.30;;;2.10;;
21621;SDS011;10973;46.706;12.340;2023-11-21T04:13:09;2.83;;;2.27;;
21621;SDS011;10973;46.706;12.340;2023-11-21T04:15:37;2.23;;;2.13;;
21621;SDS011;10973;46.706;12.340;2023-11-21T04:18:04;2.03;;;1.93;;
21621;SDS011;10973;46.706;12.340;2023-11-21T04:20:32;2.20;;;2.10;;
21621;SDS011;10973;46.706;12.340;2023-11-21T04:22:59;2.33;;;2.17;;
21621;SDS011;10973;46.706;12.340;2023-11-21T04:25:27;2.10;;;2.00;;
21621;SDS011;10973;46.706;12.340;2023-11-21T04:27:54;2.30;;;2.20;;
21621;SDS011;10973;46.706;12.340;2023-11-21T04:30:22;2.73;;;2.50;;
21621;SDS011;10973;46.706;12.340;2023-11-21T04:32:49;2.77;;;2.57;;
21621;SDS011;10973;46.706;12.340;2023-11-21T04:35:17;2.70;;;2.50;;
21621;SDS011;10973;46.706;12.340;2023-11-21T04:37:44;2.60;;;2.40;;
21621;SDS011;10973;46.706;12.340;2023-11-21T04:40:12;3.30;;;3.00;;
21621;SDS011;10973;46.706;12.340;2023-11-21T04:42:40;3.97;;;2.70;;
21621;SDS011;10973;46.706;12.340;2023-11-21T04:45:07;2.90;;;2.70;;
21621;SDS011;10973;46.706;12.340;2023-11-21T04:47:36;2.83;;;2.63;;
21621;SDS011;10973;46.706;12.340;2023-11-21T04:50:04;3.87;;;3.00;;
21621;SDS011;10973;46.706;12.340;2023-11-21T04:52:32;3.43;;;3.20;;
21621;SDS011;10973;46.706;12.340;2023-11-21T04:55:00;3.40;;;3.10;;
21621;SDS011;10973;46.706;12.340;2023-11-21T04:57:27;2.33;;;2.23;;
21621;SDS011;10973;46.706;12.340;2023-11-21T04:59:55;2.40;;;2.23;;
21621;SDS011;10973;46.706;12.340;2023-11-21T05:02:22;2.70;;;2.50;;
21621;SDS011;10973;46.706;12.340;2023-11-21T05:05:01;3.20;;;2.70;;
21621;SDS011;10973;46.706;12.340;2023-11-21T05:07:29;2.87;;;2.67;;
21621;SDS011;10973;46.706;12.340;2023-11-21T05:09:58;3.03;;;2.83;;
21621;SDS011;10973;46.706;12.340;2023-11-21T05:12:26;3.10;;;2.90;;
21621;SDS011;10973;46.706;12.340;2023-11-21T05:14:53;2.87;;;2.53;;
21621;SDS011;10973;46.706;12.340;2023-11-21T05:17:21;2.60;;;2.40;;
21621;SDS011;10973;46.706;12.340;2023-11-21T05:19:48;2.90;;;2.50;;
21621;SDS011;10973;46.706;12.340;2023-11-21T05:22:16;3.03;;;2.73;;
21621;SDS011;10973;46.706;12.340;2023-11-21T05:24:44;3.03;;;2.83;;
21621;SDS011;10973;46.706;12.340;2023-11-21T05:27:11;3.20;;;2.97;;
21621;SDS011;10973;46.706;12.340;2023-11-21T05:29:39;3.73;;;3.13;;
21621;SDS011;10973;46.706;12.340;2023-11-21T05:32:08;3.17;;;2.97;;
21621;SDS011;10973;46.706;12.340;2023-11-21T05:34:38;4.30;;;3.27;;
21621;SDS011;10973;46.706;12.340;2023-11-21T05:37:06;3.73;;;3.13;;
21621;SDS011;10973;46.706;12.340;2023-11-21T05:39:33;4.03;;;3.20;;
21621;SDS011;10973;46.706;12.340;2023-11-21T05:42:01;3.30;;;3.00;;
21621;SDS011;10973;46.706;12.340;2023-11-21T05:44:28;3.87;;;3.57;;
21621;SDS011;10973;46.706;12.340;2023-11-21T05:46:56;4.00;;;3.70;;
21621;SDS011;10973;46.706;12.340;2023-11-21T05:49:23;3.53;;;3.20;;
21621;SDS011;10973;46.706;12.340;2023-11-21T05:51:52;3.80;;;3.50;;
21621;SDS011;10973;46.706;12.340;2023-11-21T05:54:21;3.93;;;3.60;;
21621;SDS011;10973;46.706;12.340;2023-11-21T05:56:48;3.90;;;3.60;;
21621;SDS011;10973;46.706;12.340;2023-11-21T05:59:16;3.77;;;3.47;;
21621;SDS011;10973;46.706;12.340;2023-11-21T06:01:46;3.90;;;3.50;;
21621;SDS011;10973;46.706;12.340;2023-11-21T06:04:14;6.67;;;6.00;;
21621;SDS011;10973;46.706;12.340;2023-11-21T06:06:41;6.27;;;5.67;;
21621;SDS011;10973;46.706;12.340;2023-11-21T06:09:09;7.63;;;6.77;;
21621;SDS011;10973;46.706;12.340;2023-11-21T06:11:36;9.27;;;7.50;;
21621;SDS011;10973;46.706;12.340;2023-11-21T06:14:03;8.90;;;7.53;;
21621;SDS011;10973;46.706;12.340;2023-11-21T06:16:31;8.63;;;7.27;;
21621;SDS011;10973;46.706;12.340;2023-11-21T06:18:58;7.57;;;6.63;;
21621;SDS011;10973;46.706;12.340;2023-11-21T06:21:26;7.60;;;5.97;;
21621;SDS011;10973;46.706;12.340;2023-11-21T06:23:53;10.47;;;6.83;;
21621;SDS011;10973;46.706;12.340;2023-11-21T06:26:21;10.33;;;6.83;;
21621;SDS011;10973;46.706;12.340;2023-11-21T06:28:48;12.60;;;7.57;;
21621;SDS011;10973;46.706;12.340;2023-11-21T06:31:16;11.40;;;7.07;;
21621;SDS011;10973;46.706;12.340;2023-11-21T06:33:44;13.17;;;8.40;;
21621;SDS011;10973;46.706;12.340;2023-11-21T06:36:11;18.17;;;9.23;;
21621;SDS011;10973;46.706;12.340;2023-11-21T06:38:39;14.60;;;9.13;;
21621;SDS011;10973;46.706;12.340;2023-11-21T06:41:06;14.13;;;8.83;;
21621;SDS011;10973;46.706;12.340;2023-11-21T06:43:34;9.77;;;7.80;;
21621;SDS011;10973;46.706;12.340;2023-11-21T06:46:01;10.87;;;8.10;;
21621;SDS011;10973;46.706;12.340;2023-11-21T06:48:28;12.47;;;9.17;;
21621;SDS011;10973;46.706;12.340;2023-11-21T06:50:56;17.90;;;10.00;;
21621;SDS011;10973;46.706;12.340;2023-11-21T06:53:23;11.43;;;8.67;;
21621;SDS011;10973;46.706;12.340;2023-11-21T06:55:51;12.27;;;10.07;;
21621;SDS011;10973;46.706;12.340;2023-11-21T06:58:18;11.90;;;9.40;;
21621;SDS011;10973;46.706;12.340;2023-11-21T07:00:46;11.63;;;10.10;;
21621;SDS011;10973;46.706;12.340;2023-11-21T07:03:13;14.07;;;10.47;;
21621;SDS011;10973;46.706;12.340;2023-11-21T07:05:41;14.13;;;10.27;;
21621;SDS011;10973;46.706;12.340;2023-11-21T07:08:09;10.87;;;8.90;;
21621;SDS011;10973;46.706;12.340;2023-11-21T07:10:36;13.20;;;9.57;;
21621;SDS011;10973;46.706;12.340;2023-11-21T07:13:04;17.87;;;11.83;;
21621;SDS011;10973;46.706;12.340;2023-11-21T07:15:32;20.23;;;14.63;;
21621;SDS011;10973;46.706;12.340;2023-11-21T07:17:59;20.90;;;14.27;;
21621;SDS011;10973;46.706;12.340;2023-11-21T07:20:27;13.83;;;11.47;;
21621;SDS011;10973;46.706;12.340;2023-11-21T07:22:54;11.77;;;8.70;;
21621;SDS011;10973;46.706;12.340;2023-11-21T07:25:22;11.03;;;8.37;;
21621;SDS011;10973;46.706;12.340;2023-11-21T07:27:50;32.23;;;11.83;;
21621;SDS011;10973;46.706;12.340;2023-11-21T07:30:17;38.23;;;12.53;;
21621;SDS011;10973;46.706;12.340;2023-11-21T07:32:44;25.47;;;10.80;;
21621;SDS011;10973;46.706;12.340;2023-11-21T07:35:12;33.73;;;13.13;;
21621;SDS011;10973;46.706;12.340;2023-11-21T07:37:39;28.93;;;13.83;;
21621;SDS011;10973;46.706;12.340;2023-11-21T07:40:07;21.13;;;12.50;;
21621;SDS011;10973;46.706;12.340;2023-11-21T07:42:35;17.07;;;11.70;;
21621;SDS011;10973;46.706;12.340;2023-11-21T07:45:04;22.83;;;12.97;;
21621;SDS011;10973;46.706;12.340;2023-11-21T07:47:32;22.13;;;13.10;;
21621;SDS011;10973;46.706;12.340;2023-11-21T07:50:02;14.80;;;8.53;;
21621;SDS011;10973;46.706;12.340;2023-11-21T07:52:31;11.60;;;7.00;;
21621;SDS011;10973;46.706;12.340;2023-11-21T07:54:58;12.13;;;8.30;;
21621;SDS011;10973;46.706;12.340;2023-11-21T07:57:26;19.40;;;10.90;;
21621;SDS011;10973;46.706;12.340;2023-11-21T07:59:53;11.47;;;9.87;;
21621;SDS011;10973;46.706;12.340;2023-11-21T08:02:21;13.50;;;8.80;;
21621;SDS011;10973;46.706;12.340;2023-11-21T08:04:48;14.83;;;10.33;;
21621;SDS011;10973;46.706;12.340;2023-11-21T08:07:17;19.23;;;11.03;;
21621;SDS011;10973;46.706;12.340;2023-11-21T08:09:45;17.90;;;12.23;;
21621;SDS011;10973;46.706;12.340;2023-11-21T08:12:12;21.90;;;12.80;;
21621;SDS011;10973;46.706;12.340;2023-11-21T08:14:39;17.77;;;12.50;;
21621;SDS011;10973;46.706;12.340;2023-11-21T08:17:07;21.70;;;14.97;;
21621;SDS011;10973;46.706;12.340;2023-11-21T08:19:34;14.43;;;11.73;;
21621;SDS011;10973;46.706;12.340;2023-11-21T08:22:03;14.60;;;9.93;;
21621;SDS011;10973;46.706;12.340;2023-11-21T08:24:31;15.13;;;10.60;;
21621;SDS011;10973;46.706;12.340;2023-11-21T08:26:58;16.83;;;12.07;;
21621;SDS011;10973;46.706;12.340;2023-11-21T08:29:25;9.70;;;7.63;;
21621;SDS011;10973;46.706;12.340;2023-11-21T08:31:53;7.50;;;5.73;;
21621;SDS011;10973;46.706;12.340;2023-11-21T08:34:20;3.57;;;3.27;;
21621;SDS011;10973;46.706;12.340;2023-11-21T08:36:48;2.80;;;2.60;;
21621;SDS011;10973;46.706;12.340;2023-11-21T08:39:15;2.50;;;2.30;;
21621;SDS011;10973;46.706;12.340;2023-11-21T08:41:43;3.43;;;2.47;;
21621;SDS011;10973;46.706;12.340;2023-11-21T08:44:11;3.00;;;2.67;;
21621;SDS011;10973;46.706;12.340;2023-11-21T08:46:38;3.53;;;2.97;;
21621;SDS011;10973;46.706;12.340;2023-11-21T08:49:06;4.83;;;3.73;;
21621;SDS011;10973;46.706;12.340;2023-11-21T08:51:33;5.17;;;4.63;;
21621;SDS011;10973;46.706;12.340;2023-11-21T08:54:01;4.50;;;3.50;;
21621;SDS011;10973;46.706;12.340;2023-11-21T08:56:29;4.57;;;3.10;;
21621;SDS011;10973;46.706;12.340;2023-11-21T08:58:56;3.57;;;3.00;;
21621;SDS011;10973;46.706;12.340;2023-11-21T09:01:23;2.93;;;2.73;;
21621;SDS011;10973;46.706;12.340;2023-11-21T09:03:51;2.30;;;2.10;;
21621;SDS011;10973;46.706;12.340;2023-11-21T09:06:19;3.27;;;2.97;;
21621;SDS011;10973;46.706;12.340;2023-11-21T09:08:47;3.07;;;2.77;;
21621;SDS011;10973;46.706;12.340;2023-11-21T09:11:14;2.60;;;2.50;;
21621;SDS011;10973;46.706;12.340;2023-11-21T09:13:41;2.47;;;2.23;;
21621;SDS011;10973;46.706;12.340;2023-11-21T09:16:09;2.27;;;1.90;;
21621;SDS011;10973;46.706;12.340;2023-11-21T09:18:36;1.80;;;1.70;;
21621;SDS011;10973;46.706;12.340;2023-11-21T09:21:04;1.63;;;1.53;;
21621;SDS011;10973;46.706;12.340;2023-11-21T09:23:32;2.33;;;2.10;;
21621;SDS011;10973;46.706;12.340;2023-11-21T09:26:00;1.93;;;1.83;;
21621;SDS011;10973;46.706;12.340;2023-11-21T09:28:28;3.43;;;1.93;;
21621;SDS011;10973;46.706;12.340;2023-11-21T09:30:55;4.07;;;2.17;;
21621;SDS011;10973;46.706;12.340;2023-11-21T09:33:23;2.10;;;1.97;;
21621;SDS011;10973;46.706;12.340;2023-11-21T09:35:50;9.17;;;5.80;;
21621;SDS011;10973;46.706;12.340;2023-11-21T09:38:18;3.17;;;2.27;;
21621;SDS011;10973;46.706;12.340;2023-11-21T09:40:46;5.97;;;4.10;;
21621;SDS011;10973;46.706;12.340;2023-11-21T09:43:17;2.67;;;2.40;;
21621;SDS011;10973;46.706;12.340;2023-11-21T09:45:46;1.97;;;1.87;;
21621;SDS011;10973;46.706;12.340;2023-11-21T09:48:21;1.50;;;1.50;;
21621;SDS011;10973;46.706;12.340;2023-11-21T09:50:51;1.80;;;1.70;;
21621;SDS011;10973;46.706;12.340;2023-11-21T09:53:21;2.60;;;2.40;;
21621;SDS011;10973;46.706;12.340;2023-11-21T09:55:52;3.37;;;2.50;;
21621;SDS011;10973;46.706;12.340;2023-11-21T09:58:20;24.70;;;17.50;;
21621;SDS011;10973;46.706;12.340;2023-11-21T10:00:49;50.53;;;28.97;;
21621;SDS011;10973;46.706;12.340;2023-11-21T10:03:20;6.57;;;5.03;;
21621;SDS011;10973;46.706;12.340;2023-11-21T10:05:48;2.97;;;2.77;;
21621;SDS011;10973;46.706;12.340;2023-11-21T10:08:19;3.80;;;3.50;;
21621;SDS011;10973;46.706;12.340;2023-11-21T10:10:49;2.80;;;2.60;;
21621;SDS011;10973;46.706;12.340;2023-11-21T10:13:20;2.30;;;2.10;;
21621;SDS011;10973;46.706;12.340;2023-11-21T10:15:49;2.00;;;1.90;;
21621;SDS011;10973;46.706;12.340;2023-11-21T10:18:19;2.30;;;2.20;;
21621;SDS011;10973;46.706;12.340;2023-11-21T10:20:47;3.33;;;2.00;;
21621;SDS011;10973;46.706;12.340;2023-11-21T10:23:14;1.80;;;1.70;;
21621;SDS011;10973;46.706;12.340;2023-11-21T10:25:42;1.70;;;1.60;;
21621;SDS011;10973;46.706;12.340;2023-11-21T10:28:09;1.90;;;1.80;;
21621;SDS011;10973;46.706;12.340;2023-11-21T10:30:37;1.70;;;1.67;;
21621;SDS011;10973;46.706;12.340;2023-11-21T10:33:06;1.73;;;1.63;;
21621;SDS011;10973;46.706;12.340;2023-11-21T10:35:38;2.30;;;1.90;;
21621;SDS011;10973;46.706;12.340;2023-11-21T10:38:08;2.20;;;2.10;;
21621;SDS011;10973;46.706;12.340;2023-11-21T10:40:39;2.30;;;2.10;;
21621;SDS011;10973;46.706;12.340;2023-11-21T10:43:11;2.57;;;2.00;;
21621;SDS011;10973;46.706;12.340;2023-11-21T10:45:39;1.43;;;1.33;;
21621;SDS011;10973;46.706;12.340;2023-11-21T10:48:08;1.87;;;1.67;;
21621;SDS011;10973;46.706;12.340;2023-11-21T10:50:39;2.87;;;1.60;;
21621;SDS011;10973;46.706;12.340;2023-11-21T10:53:06;2.10;;;1.70;;
21621;SDS011;10973;46.706;12.340;2023-11-21T10:55:34;2.03;;;1.87;;
21621;SDS011;10973;46.706;12.340;2023-11-21T10:58:02;2.40;;;1.70;;
21621;SDS011;10973;46.706;12.340;2023-11-21T11:00:32;2.53;;;2.30;;
21621;SDS011;10973;46.706;12.340;2023-11-21T11:03:00;3.40;;;2.50;;
21621;SDS011;10973;46.706;12.340;2023-11-21T11:05:30;2.10;;;2.00;;
21621;SDS011;10973;46.706;12.340;2023-11-21T11:08:04;2.20;;;2.00;;
21621;SDS011;10973;46.706;12.340;2023-11-21T11:10:35;2.20;;;2.10;;
21621;SDS011;10973;46.706;12.340;2023-11-21T11:13:03;1.90;;;1.80;;
21621;SDS011;10973;46.706;12.340;2023-11-21T11:15:33;3.27;;;2.63;;
21621;SDS011;10973;46.706;12.340;2023-11-21T11:18:01;1.90;;;1.80;;
21621;SDS011;10973;46.706;12.340;2023-11-21T11:20:30;2.10;;;2.00;;
21621;SDS011;10973;46.706;12.340;2023-11-21T11:31:46;3.30;;;2.17;;
21621;SDS011;10973;46.706;12.340;2023-11-21T11:34:47;2.10;;;2.00;;
21621;SDS011;10973;46.706;12.340;2023-11-21T11:37:31;2.03;;;1.90;;
21621;SDS011;10973;46.706;12.340;2023-11-21T11:39:59;1.80;;;1.70;;
21621;SDS011;10973;46.706;12.340;2023-11-21T11:42:26;1.50;;;1.50;;
21621;SDS011;10973;46.706;12.340;2023-11-21T11:44:54;2.27;;;2.10;;
21621;SDS011;10973;46.706;12.340;2023-11-21T11:47:22;2.07;;;1.97;;
21621;SDS011;10973;46.706;12.340;2023-11-21T11:50:01;2.30;;;2.10;;
21621;SDS011;10973;46.706;12.340;2023-11-21T11:52:41;3.20;;;1.80;;
21621;SDS011;10973;46.706;12.340;2023-11-21T11:55:10;2.40;;;2.30;;
21621;SDS011;10973;46.706;12.340;2023-11-21T11:57:41;2.50;;;2.30;;
21621;SDS011;10973;46.706;12.340;2023-11-21T12:02:49;2.27;;;2.13;;
21621;SDS011;10973;46.706;12.340;2023-11-21T12:05:21;2.30;;;2.20;;
21621;SDS011;10973;46.706;12.340;2023-11-21T12:07:54;3.20;;;2.30;;
21621;SDS011;10973;46.706;12.340;2023-11-21T12:10:24;3.20;;;2.77;;
21621;SDS011;10973;46.706;12.340;2023-11-21T12:12:56;1.90;;;1.80;;
21621;SDS011;10973;46.706;12.340;2023-11-21T12:15:27;1.87;;;1.77;;
21621;SDS011;10973;46.706;12.340;2023-11-21T12:17:55;2.77;;;2.10;;
21621;SDS011;10973;46.706;12.340;2023-11-21T12:20:23;1.90;;;1.80;;
21621;SDS011;10973;46.706;12.340;2023-11-21T12:22:56;2.00;;;1.90;;
21621;SDS011;10973;46.706;12.340;2023-11-21T12:25:30;2.10;;;2.00;;
21621;SDS011;10973;46.706;12.340;2023-11-21T12:27:59;2.00;;;1.90;;
21621;SDS011;10973;46.706;12.340;2023-11-21T12:30:29;2.10;;;2.00;;
21621;SDS011;10973;46.706;12.340;2023-11-21T12:32:59;2.13;;;1.93;;
21621;SDS011;10973;46.706;12.340;2023-11-21T12:35:28;1.80;;;1.70;;
21621;SDS011;10973;46.706;12.340;2023-11-21T12:38:01;1.80;;;1.70;;
21621;SDS011;10973;46.706;12.340;2023-11-21T12:40:30;1.80;;;1.70;;
21621;SDS011;10973;46.706;12.340;2023-11-21T12:42:58;1.80;;;1.47;;
21621;SDS011;10973;46.706;12.340;2023-11-21T12:45:27;1.57;;;1.50;;
21621;SDS011;10973;46.706;12.340;2023-11-21T12:48:05;1.50;;;1.50;;
21621;SDS011;10973;46.706;12.340;2023-11-21T12:50:33;1.40;;;1.40;;
21621;SDS011;10973;46.706;12.340;2023-11-21T12:53:03;6.37;;;3.77;;
21621;SDS011;10973;46.706;12.340;2023-11-21T12:55:36;2.70;;;2.37;;
21621;SDS011;10973;46.706;12.340;2023-11-21T12:58:08;2.17;;;2.07;;
21621;SDS011;10973;46.706;12.340;2023-11-21T13:00:48;3.00;;;2.70;;
21621;SDS011;10973;46.706;12.340;2023-11-21T13:03:16;1.97;;;1.87;;
21621;SDS011;10973;46.706;12.340;2023-11-21T13:05:48;2.97;;;1.83;;
21621;SDS011;10973;46.706;12.340;2023-11-21T13:08:17;1.83;;;1.60;;
21621;SDS011;10973;46.706;12.340;2023-11-21T13:10:45;1.80;;;1.70;;
21621;SDS011;10973;46.706;12.340;2023-11-21T13:13:15;1.90;;;1.50;;
21621;SDS011;10973;46.706;12.340;2023-11-21T13:15:50;2.13;;;1.50;;
21621;SDS011;10973;46.706;12.340;2023-11-21T13:18:20;1.50;;;1.50;;
21621;SDS011;10973;46.706;12.340;2023-11-21T13:20:47;1.60;;;1.60;;
21621;SDS011;10973;46.706;12.340;2023-11-21T13:23:16;1.53;;;1.43;;
21621;SDS011;10973;46.706;12.340;2023-11-21T13:25:43;1.40;;;1.40;;
21621;SDS011;10973;46.706;12.340;2023-11-21T13:28:23;1.40;;;1.40;;
21621;SDS011;10973;46.706;12.340;2023-11-21T13:30:50;1.63;;;1.60;;
21621;SDS011;10973;46.706;12.340;2023-11-21T13:33:18;2.40;;;1.80;;
21621;SDS011;10973;46.706;12.340;2023-11-21T13:35:46;1.80;;;1.70;;
21621;SDS011;10973;46.706;12.340;2023-11-21T13:38:14;1.70;;;1.60;;
21621;SDS011;10973;46.706;12.340;2023-11-21T13:40:47;2.03;;;1.70;;
21621;SDS011;10973;46.706;12.340;2023-11-21T13:43:17;1.83;;;1.80;;
21621;SDS011;10973;46.706;12.340;2023-11-21T13:45:47;2.10;;;2.00;;
21621;SDS011;10973;46.706;12.340;2023-11-21T13:48:16;2.53;;;2.33;;
21621;SDS011;10973;46.706;12.340;2023-11-21T13:50:43;1.90;;;1.80;;
21621;SDS011;10973;46.706;12.340;2023-11-21T13:53:11;2.13;;;1.93;;
21621;SDS011;10973;46.706;12.340;2023-11-21T13:55:38;2.20;;;2.10;;
21621;SDS011;10973;46.706;12.340;2023-11-21T13:58:05;1.73;;;1.63;;
21621;SDS011;10973;46.706;12.340;2023-11-21T14:00:33;1.83;;;1.70;;
21621;SDS011;10973;46.706;12.340;2023-11-21T14:03:00;1.97;;;1.87;;
21621;SDS011;10973;46.706;12.340;2023-11-21T14:05:29;2.00;;;1.90;;
21621;SDS011;10973;46.706;12.340;2023-11-21T14:07:57;2.10;;;1.93;;
21621;SDS011;10973;46.706;12.340;2023-11-21T14:10:24;2.53;;;2.33;;
21621;SDS011;10973;46.706;12.340;2023-11-21T14:12:52;2.00;;;1.90;;
21621;SDS011;10973;46.706;12.340;2023-11-21T14:15:19;2.00;;;1.90;;
21621;SDS011;10973;46.706;12.340;2023-11-21T14:17:47;25.77;;;14.13;;
21621;SDS011;10973;46.706;12.340;2023-11-21T14:20:15;6.80;;;6.07;;
21621;SDS011;10973;46.706;12.340;2023-11-21T14:22:43;9.67;;;7.53;;
21621;SDS011;10973;46.706;12.340;2023-11-21T14:25:11;2.30;;;2.20;;
21621;SDS011;10973;46.706;12.340;2023-11-21T14:27:39;2.27;;;2.17;;
21621;SDS011;10973;46.706;12.340;2023-11-21T14:30:06;3.50;;;2.70;;
21621;SDS011;10973;46.706;12.340;2023-11-21T14:32:35;4.37;;;2.50;;
21621;SDS011;10973;46.706;12.340;2023-11-21T14:35:02;2.27;;;2.13;;
21621;SDS011;10973;46.706;12.340;2023-11-21T14:37:30;1.80;;;1.80;;
21621;SDS011;10973;46.706;12.340;2023-11-21T14:39:58;1.80;;;1.70;;
21621;SDS011;10973;46.706;12.340;2023-11-21T14:42:25;10.17;;;3.10;;
21621;SDS011;10973;46.706;12.340;2023-11-21T14:44:53;3.03;;;2.83;;
21621;SDS011;10973;46.706;12.340;2023-11-21T14:47:20;2.20;;;2.10;;
21621;SDS011;10973;46.706;12.340;2023-11-21T14:49:48;2.00;;;1.90;;